sensor_id;sensor_type;location;lat;lon;timestamp;P1;durP1;ratioP1;P2;durP2;ratioP2
21424;SDS011;10873;51.132;16.848;2023-09-18T00:01:18;2.10;;;2.00;;
21424;SDS011;10873;51.132;16.848;2023-09-18T00:03:46;2.13;;;1.60;;
21424;SDS011;10873;51.132;16.848;2023-09-18T00:06:12;2.10;;;1.90;;
21424;SDS011;10873;51.132;16.848;2023-09-18T00:08:38;2.78;;;2.00;;
21424;SDS011;10873;51.132;16.848;2023-09-18T00:11:05;2.35;;;2.13;;
21424;SDS011;10873;51.132;16.848;2023-09-18T00:13:32;2.15;;;1.73;;
21424;SDS011;10873;51.132;16.848;2023-09-18T00:15:58;2.20;;;2.00;;
21424;SDS011;10873;51.132;16.848;2023-09-18T00:18:24;2.03;;;1.77;;
21424;SDS011;10873;51.132;16.848;2023-09-18T00:20:52;2.40;;;2.20;;
21424;SDS011;10873;51.132;16.848;2023-09-18T00:23:18;2.10;;;2.00;;
21424;SDS011;10873;51.132;16.848;2023-09-18T00:25:44;3.08;;;2.10;;
21424;SDS011;10873;51.132;16.848;2023-09-18T00:28:10;2.40;;;1.80;;
21424;SDS011;10873;51.132;16.848;2023-09-18T00:30:37;2.40;;;2.20;;
21424;SDS011;10873;51.132;16.848;2023-09-18T00:33:07;2.88;;;1.92;;
21424;SDS011;10873;51.132;16.848;2023-09-18T00:35:37;2.47;;;2.25;;
21424;SDS011;10873;51.132;16.848;2023-09-18T00:38:04;1.90;;;1.80;;
21424;SDS011;10873;51.132;16.848;2023-09-18T00:50:54;2.45;;;1.83;;
21424;SDS011;10873;51.132;16.848;2023-09-18T00:53:23;1.98;;;1.77;;
21424;SDS011;10873;51.132;16.848;2023-09-18T00:55:52;2.30;;;2.10;;
21424;SDS011;10873;51.132;16.848;2023-09-18T00:58:20;2.60;;;2.15;;
21424;SDS011;10873;51.132;16.848;2023-09-18T01:00:46;1.88;;;1.70;;
21424;SDS011;10873;51.132;16.848;2023-09-18T01:03:16;2.80;;;2.10;;
21424;SDS011;10873;51.132;16.848;2023-09-18T01:05:43;2.45;;;2.20;;
21424;SDS011;10873;51.132;16.848;2023-09-18T01:08:10;2.50;;;1.95;;
21424;SDS011;10873;51.132;16.848;2023-09-18T01:10:39;2.20;;;2.00;;
21424;SDS011;10873;51.132;16.848;2023-09-18T01:13:14;2.67;;;2.08;;
21424;SDS011;10873;51.132;16.848;2023-09-18T01:15:48;2.33;;;2.03;;
21424;SDS011;10873;51.132;16.848;2023-09-18T01:18:37;2.38;;;2.15;;
21424;SDS011;10873;51.132;16.848;2023-09-18T01:21:02;2.50;;;2.30;;
21424;SDS011;10873;51.132;16.848;2023-09-18T01:23:30;2.10;;;1.90;;
21424;SDS011;10873;51.132;16.848;2023-09-18T01:25:56;2.63;;;2.28;;
21424;SDS011;10873;51.132;16.848;2023-09-18T01:28:22;2.72;;;2.35;;
21424;SDS011;10873;51.132;16.848;2023-09-18T01:30:48;2.40;;;2.20;;
21424;SDS011;10873;51.132;16.848;2023-09-18T01:33:14;2.67;;;2.47;;
21424;SDS011;10873;51.132;16.848;2023-09-18T01:35:41;2.38;;;2.05;;
21424;SDS011;10873;51.132;16.848;2023-09-18T01:38:08;2.25;;;2.05;;
21424;SDS011;10873;51.132;16.848;2023-09-18T01:40:37;2.70;;;2.30;;
21424;SDS011;10873;51.132;16.848;2023-09-18T01:43:04;3.25;;;2.42;;
21424;SDS011;10873;51.132;16.848;2023-09-18T01:45:30;2.75;;;2.30;;
21424;SDS011;10873;51.132;16.848;2023-09-18T01:47:58;2.53;;;2.33;;
21424;SDS011;10873;51.132;16.848;2023-09-18T01:50:24;2.80;;;2.60;;
21424;SDS011;10873;51.132;16.848;2023-09-18T01:52:50;2.42;;;2.22;;
21424;SDS011;10873;51.132;16.848;2023-09-18T01:55:16;2.50;;;2.30;;
21424;SDS011;10873;51.132;16.848;2023-09-18T01:57:44;2.20;;;2.10;;
21424;SDS011;10873;51.132;16.848;2023-09-18T02:00:10;2.30;;;2.10;;
21424;SDS011;10873;51.132;16.848;2023-09-18T02:02:37;3.05;;;2.63;;
21424;SDS011;10873;51.132;16.848;2023-09-18T02:05:04;3.83;;;2.53;;
21424;SDS011;10873;51.132;16.848;2023-09-18T02:07:30;2.58;;;2.38;;
21424;SDS011;10873;51.132;16.848;2023-09-18T02:09:56;2.58;;;2.38;;
21424;SDS011;10873;51.132;16.848;2023-09-18T02:12:23;2.88;;;2.60;;
21424;SDS011;10873;51.132;16.848;2023-09-18T02:14:50;3.60;;;2.40;;
21424;SDS011;10873;51.132;16.848;2023-09-18T02:17:16;2.95;;;2.20;;
21424;SDS011;10873;51.132;16.848;2023-09-18T02:19:42;4.35;;;2.13;;
21424;SDS011;10873;51.132;16.848;2023-09-18T02:22:08;2.83;;;2.50;;
21424;SDS011;10873;51.132;16.848;2023-09-18T02:24:34;2.67;;;2.45;;
21424;SDS011;10873;51.132;16.848;2023-09-18T02:27:02;3.60;;;2.55;;
21424;SDS011;10873;51.132;16.848;2023-09-18T02:29:31;2.90;;;2.58;;
21424;SDS011;10873;51.132;16.848;2023-09-18T02:31:59;4.00;;;2.65;;
21424;SDS011;10873;51.132;16.848;2023-09-18T02:34:25;2.33;;;2.13;;
21424;SDS011;10873;51.132;16.848;2023-09-18T02:36:51;2.40;;;2.17;;
21424;SDS011;10873;51.132;16.848;2023-09-18T02:39:17;2.45;;;2.25;;
21424;SDS011;10873;51.132;16.848;2023-09-18T02:41:43;2.67;;;2.45;;
21424;SDS011;10873;51.132;16.848;2023-09-18T02:44:09;2.80;;;2.60;;
21424;SDS011;10873;51.132;16.848;2023-09-18T02:46:36;2.42;;;2.10;;
21424;SDS011;10873;51.132;16.848;2023-09-18T02:49:05;2.47;;;2.20;;
21424;SDS011;10873;51.132;16.848;2023-09-18T02:51:31;2.40;;;2.20;;
21424;SDS011;10873;51.132;16.848;2023-09-18T02:53:57;2.70;;;2.50;;
21424;SDS011;10873;51.132;16.848;2023-09-18T02:56:23;2.30;;;2.10;;
21424;SDS011;10873;51.132;16.848;2023-09-18T02:58:49;2.50;;;2.30;;
21424;SDS011;10873;51.132;16.848;2023-09-18T03:01:15;2.42;;;2.22;;
21424;SDS011;10873;51.132;16.848;2023-09-18T03:03:41;4.13;;;2.35;;
21424;SDS011;10873;51.132;16.848;2023-09-18T03:06:08;2.60;;;2.40;;
21424;SDS011;10873;51.132;16.848;2023-09-18T03:08:34;2.60;;;2.40;;
21424;SDS011;10873;51.132;16.848;2023-09-18T03:11:00;2.75;;;2.40;;
21424;SDS011;10873;51.132;16.848;2023-09-18T03:13:27;2.30;;;2.10;;
21424;SDS011;10873;51.132;16.848;2023-09-18T03:15:54;2.40;;;2.20;;
21424;SDS011;10873;51.132;16.848;2023-09-18T03:18:21;4.18;;;2.60;;
21424;SDS011;10873;51.132;16.848;2023-09-18T03:20:47;4.18;;;2.28;;
21424;SDS011;10873;51.132;16.848;2023-09-18T03:23:15;2.33;;;2.13;;
21424;SDS011;10873;51.132;16.848;2023-09-18T03:25:41;2.50;;;2.30;;
21424;SDS011;10873;51.132;16.848;2023-09-18T03:28:07;2.80;;;2.60;;
21424;SDS011;10873;51.132;16.848;2023-09-18T03:30:33;2.33;;;2.13;;
21424;SDS011;10873;51.132;16.848;2023-09-18T03:32:59;3.20;;;2.65;;
21424;SDS011;10873;51.132;16.848;2023-09-18T03:35:28;2.72;;;2.50;;
21424;SDS011;10873;51.132;16.848;2023-09-18T03:37:56;3.17;;;2.40;;
21424;SDS011;10873;51.132;16.848;2023-09-18T03:40:23;2.75;;;2.55;;
21424;SDS011;10873;51.132;16.848;2023-09-18T03:42:49;2.78;;;2.53;;
21424;SDS011;10873;51.132;16.848;2023-09-18T03:45:15;2.88;;;2.25;;
21424;SDS011;10873;51.132;16.848;2023-09-18T03:47:44;3.58;;;2.80;;
21424;SDS011;10873;51.132;16.848;2023-09-18T03:50:10;2.85;;;2.50;;
21424;SDS011;10873;51.132;16.848;2023-09-18T03:52:37;3.10;;;2.80;;
21424;SDS011;10873;51.132;16.848;2023-09-18T03:55:04;2.55;;;2.25;;
21424;SDS011;10873;51.132;16.848;2023-09-18T03:57:32;4.45;;;2.65;;
21424;SDS011;10873;51.132;16.848;2023-09-18T03:59:58;3.03;;;2.45;;
21424;SDS011;10873;51.132;16.848;2023-09-18T04:02:25;2.75;;;2.50;;
21424;SDS011;10873;51.132;16.848;2023-09-18T04:04:52;2.92;;;2.60;;
21424;SDS011;10873;51.132;16.848;2023-09-18T04:07:20;2.75;;;2.50;;
21424;SDS011;10873;51.132;16.848;2023-09-18T04:09:46;3.08;;;2.78;;
21424;SDS011;10873;51.132;16.848;2023-09-18T04:12:12;3.00;;;2.72;;
21424;SDS011;10873;51.132;16.848;2023-09-18T04:14:39;3.10;;;2.67;;
21424;SDS011;10873;51.132;16.848;2023-09-18T04:17:05;4.28;;;2.72;;
21424;SDS011;10873;51.132;16.848;2023-09-18T04:19:32;4.93;;;2.70;;
21424;SDS011;10873;51.132;16.848;2023-09-18T04:21:57;3.15;;;2.80;;
21424;SDS011;10873;51.132;16.848;2023-09-18T04:24:25;2.80;;;2.60;;
21424;SDS011;10873;51.132;16.848;2023-09-18T04:26:52;4.63;;;2.80;;
21424;SDS011;10873;51.132;16.848;2023-09-18T04:29:18;4.80;;;2.70;;
21424;SDS011;10873;51.132;16.848;2023-09-18T04:31:46;2.83;;;2.50;;
21424;SDS011;10873;51.132;16.848;2023-09-18T04:34:12;3.05;;;2.70;;
21424;SDS011;10873;51.132;16.848;2023-09-18T04:36:39;3.05;;;2.85;;
21424;SDS011;10873;51.132;16.848;2023-09-18T04:39:06;3.00;;;2.70;;
21424;SDS011;10873;51.132;16.848;2023-09-18T04:41:32;2.63;;;2.42;;
21424;SDS011;10873;51.132;16.848;2023-09-18T04:43:59;2.60;;;2.40;;
21424;SDS011;10873;51.132;16.848;2023-09-18T04:46:25;3.20;;;2.50;;
21424;SDS011;10873;51.132;16.848;2023-09-18T04:48:52;2.80;;;2.60;;
21424;SDS011;10873;51.132;16.848;2023-09-18T04:51:18;4.75;;;2.85;;
21424;SDS011;10873;51.132;16.848;2023-09-18T04:53:45;3.00;;;2.70;;
21424;SDS011;10873;51.132;16.848;2023-09-18T04:56:10;4.45;;;2.53;;
21424;SDS011;10873;51.132;16.848;2023-09-18T04:58:37;3.55;;;3.03;;
21424;SDS011;10873;51.132;16.848;2023-09-18T05:01:03;3.67;;;2.85;;
21424;SDS011;10873;51.132;16.848;2023-09-18T05:03:33;3.22;;;2.88;;
21424;SDS011;10873;51.132;16.848;2023-09-18T05:06:00;2.92;;;2.60;;
21424;SDS011;10873;51.132;16.848;2023-09-18T05:08:28;3.13;;;2.80;;
21424;SDS011;10873;51.132;16.848;2023-09-18T05:10:54;7.25;;;2.95;;
21424;SDS011;10873;51.132;16.848;2023-09-18T05:13:21;3.58;;;2.67;;
21424;SDS011;10873;51.132;16.848;2023-09-18T05:15:47;4.95;;;2.90;;
21424;SDS011;10873;51.132;16.848;2023-09-18T05:18:13;3.83;;;2.90;;
21424;SDS011;10873;51.132;16.848;2023-09-18T05:20:39;7.13;;;2.75;;
21424;SDS011;10873;51.132;16.848;2023-09-18T05:23:07;3.35;;;2.65;;
21424;SDS011;10873;51.132;16.848;2023-09-18T05:25:33;4.85;;;2.80;;
21424;SDS011;10873;51.132;16.848;2023-09-18T05:28:03;3.10;;;2.80;;
21424;SDS011;10873;51.132;16.848;2023-09-18T05:30:31;5.32;;;3.00;;
21424;SDS011;10873;51.132;16.848;2023-09-18T05:33:00;8.82;;;3.10;;
21424;SDS011;10873;51.132;16.848;2023-09-18T05:35:30;3.75;;;2.92;;
21424;SDS011;10873;51.132;16.848;2023-09-18T05:37:56;6.22;;;3.22;;
21424;SDS011;10873;51.132;16.848;2023-09-18T05:40:25;7.45;;;3.08;;
21424;SDS011;10873;51.132;16.848;2023-09-18T05:42:55;3.45;;;2.92;;
21424;SDS011;10873;51.132;16.848;2023-09-18T05:45:21;4.22;;;2.97;;
21424;SDS011;10873;51.132;16.848;2023-09-18T05:47:48;3.40;;;2.67;;
21424;SDS011;10873;51.132;16.848;2023-09-18T05:50:15;3.78;;;3.03;;
21424;SDS011;10873;51.132;16.848;2023-09-18T05:52:42;3.13;;;2.65;;
21424;SDS011;10873;51.132;16.848;2023-09-18T05:55:09;3.28;;;2.80;;
21424;SDS011;10873;51.132;16.848;2023-09-18T05:57:37;3.90;;;2.70;;
21424;SDS011;10873;51.132;16.848;2023-09-18T06:00:03;4.25;;;3.00;;
21424;SDS011;10873;51.132;16.848;2023-09-18T06:02:30;5.22;;;3.35;;
21424;SDS011;10873;51.132;16.848;2023-09-18T06:04:56;6.50;;;3.13;;
21424;SDS011;10873;51.132;16.848;2023-09-18T06:07:25;5.78;;;3.15;;
21424;SDS011;10873;51.132;16.848;2023-09-18T06:09:51;9.52;;;3.00;;
21424;SDS011;10873;51.132;16.848;2023-09-18T06:12:18;4.85;;;3.05;;
21424;SDS011;10873;51.132;16.848;2023-09-18T06:14:45;3.10;;;2.80;;
21424;SDS011;10873;51.132;16.848;2023-09-18T06:17:13;4.05;;;3.20;;
21424;SDS011;10873;51.132;16.848;2023-09-18T06:19:40;4.72;;;3.22;;
21424;SDS011;10873;51.132;16.848;2023-09-18T06:22:06;3.08;;;2.88;;
21424;SDS011;10873;51.132;16.848;2023-09-18T06:24:35;5.80;;;3.05;;
21424;SDS011;10873;51.132;16.848;2023-09-18T06:27:02;4.07;;;3.03;;
21424;SDS011;10873;51.132;16.848;2023-09-18T06:29:31;4.85;;;3.22;;
21424;SDS011;10873;51.132;16.848;2023-09-18T06:31:59;4.65;;;3.40;;
21424;SDS011;10873;51.132;16.848;2023-09-18T06:34:26;5.85;;;3.33;;
21424;SDS011;10873;51.132;16.848;2023-09-18T06:36:53;4.88;;;2.92;;
21424;SDS011;10873;51.132;16.848;2023-09-18T06:39:19;4.72;;;3.03;;
21424;SDS011;10873;51.132;16.848;2023-09-18T06:41:48;3.40;;;2.88;;
21424;SDS011;10873;51.132;16.848;2023-09-18T06:44:13;3.35;;;3.03;;
21424;SDS011;10873;51.132;16.848;2023-09-18T06:46:40;3.53;;;3.22;;
21424;SDS011;10873;51.132;16.848;2023-09-18T06:49:07;4.93;;;3.35;;
21424;SDS011;10873;51.132;16.848;2023-09-18T06:51:33;3.85;;;3.25;;
21424;SDS011;10873;51.132;16.848;2023-09-18T06:53:59;3.47;;;3.10;;
21424;SDS011;10873;51.132;16.848;2023-09-18T06:56:28;4.50;;;3.50;;
21424;SDS011;10873;51.132;16.848;2023-09-18T06:58:54;4.40;;;3.30;;
21424;SDS011;10873;51.132;16.848;2023-09-18T07:01:20;3.58;;;3.28;;
21424;SDS011;10873;51.132;16.848;2023-09-18T07:03:46;3.28;;;2.90;;
21424;SDS011;10873;51.132;16.848;2023-09-18T07:06:14;3.53;;;3.22;;
21424;SDS011;10873;51.132;16.848;2023-09-18T07:08:47;3.55;;;2.90;;
21424;SDS011;10873;51.132;16.848;2023-09-18T07:11:16;3.30;;;3.00;;
21424;SDS011;10873;51.132;16.848;2023-09-18T07:13:43;3.80;;;3.10;;
21424;SDS011;10873;51.132;16.848;2023-09-18T07:16:09;5.32;;;3.15;;
21424;SDS011;10873;51.132;16.848;2023-09-18T07:18:36;6.30;;;3.20;;
21424;SDS011;10873;51.132;16.848;2023-09-18T07:21:02;3.90;;;3.10;;
21424;SDS011;10873;51.132;16.848;2023-09-18T07:23:30;7.18;;;2.90;;
21424;SDS011;10873;51.132;16.848;2023-09-18T07:25:56;5.70;;;3.30;;
21424;SDS011;10873;51.132;16.848;2023-09-18T07:28:23;3.78;;;3.30;;
21424;SDS011;10873;51.132;16.848;2023-09-18T07:30:49;4.00;;;3.00;;
21424;SDS011;10873;51.132;16.848;2023-09-18T07:33:15;4.30;;;3.50;;
21424;SDS011;10873;51.132;16.848;2023-09-18T07:35:45;3.67;;;3.28;;
21424;SDS011;10873;51.132;16.848;2023-09-18T07:38:12;4.03;;;3.15;;
21424;SDS011;10873;51.132;16.848;2023-09-18T07:40:40;3.22;;;2.92;;
21424;SDS011;10873;51.132;16.848;2023-09-18T07:43:06;4.10;;;3.30;;
21424;SDS011;10873;51.132;16.848;2023-09-18T07:45:33;3.53;;;3.20;;
21424;SDS011;10873;51.132;16.848;2023-09-18T07:47:59;3.40;;;3.10;;
21424;SDS011;10873;51.132;16.848;2023-09-18T07:50:25;4.40;;;3.25;;
21424;SDS011;10873;51.132;16.848;2023-09-18T07:52:52;5.00;;;2.90;;
21424;SDS011;10873;51.132;16.848;2023-09-18T07:55:18;3.38;;;2.90;;
21424;SDS011;10873;51.132;16.848;2023-09-18T07:57:46;4.60;;;2.90;;
21424;SDS011;10873;51.132;16.848;2023-09-18T08:00:14;4.03;;;3.17;;
21424;SDS011;10873;51.132;16.848;2023-09-18T08:02:41;4.80;;;3.63;;
21424;SDS011;10873;51.132;16.848;2023-09-18T08:05:07;3.50;;;3.20;;
21424;SDS011;10873;51.132;16.848;2023-09-18T08:07:34;3.20;;;2.90;;
21424;SDS011;10873;51.132;16.848;2023-09-18T08:10:01;5.32;;;3.28;;
21424;SDS011;10873;51.132;16.848;2023-09-18T08:12:27;3.78;;;3.15;;
21424;SDS011;10873;51.132;16.848;2023-09-18T08:14:55;3.45;;;3.05;;
21424;SDS011;10873;51.132;16.848;2023-09-18T08:17:24;4.00;;;3.10;;
21424;SDS011;10873;51.132;16.848;2023-09-18T08:19:50;3.75;;;3.00;;
21424;SDS011;10873;51.132;16.848;2023-09-18T08:22:17;3.88;;;3.40;;
21424;SDS011;10873;51.132;16.848;2023-09-18T08:24:44;5.65;;;3.40;;
21424;SDS011;10873;51.132;16.848;2023-09-18T08:27:13;4.07;;;3.20;;
21424;SDS011;10873;51.132;16.848;2023-09-18T08:29:39;5.00;;;3.00;;
21424;SDS011;10873;51.132;16.848;2023-09-18T08:32:07;4.22;;;3.15;;
21424;SDS011;10873;51.132;16.848;2023-09-18T08:34:33;3.50;;;3.20;;
21424;SDS011;10873;51.132;16.848;2023-09-18T08:36:59;3.25;;;2.95;;
21424;SDS011;10873;51.132;16.848;2023-09-18T08:39:25;3.45;;;3.13;;
21424;SDS011;10873;51.132;16.848;2023-09-18T08:41:51;3.50;;;3.20;;
21424;SDS011;10873;51.132;16.848;2023-09-18T08:44:29;3.42;;;3.10;;
21424;SDS011;10873;51.132;16.848;2023-09-18T08:47:03;5.28;;;3.53;;
21424;SDS011;10873;51.132;16.848;2023-09-18T08:49:31;5.50;;;3.28;;
21424;SDS011;10873;51.132;16.848;2023-09-18T08:51:59;3.45;;;2.75;;
21424;SDS011;10873;51.132;16.848;2023-09-18T08:54:26;3.58;;;3.28;;
21424;SDS011;10873;51.132;16.848;2023-09-18T08:56:54;5.35;;;3.72;;
21424;SDS011;10873;51.132;16.848;2023-09-18T08:59:21;3.50;;;3.15;;
21424;SDS011;10873;51.132;16.848;2023-09-18T09:01:47;3.90;;;3.38;;
21424;SDS011;10873;51.132;16.848;2023-09-18T09:04:13;3.95;;;3.33;;
21424;SDS011;10873;51.132;16.848;2023-09-18T09:06:41;7.38;;;3.58;;
21424;SDS011;10873;51.132;16.848;2023-09-18T09:09:09;3.80;;;3.40;;
21424;SDS011;10873;51.132;16.848;2023-09-18T09:11:35;4.05;;;3.40;;
21424;SDS011;10873;51.132;16.848;2023-09-18T09:14:10;3.75;;;3.33;;
21424;SDS011;10873;51.132;16.848;2023-09-18T09:16:41;4.05;;;3.13;;
21424;SDS011;10873;51.132;16.848;2023-09-18T09:19:12;3.78;;;3.40;;
21424;SDS011;10873;51.132;16.848;2023-09-18T09:21:39;4.00;;;3.53;;
21424;SDS011;10873;51.132;16.848;2023-09-18T09:24:07;3.50;;;3.20;;
21424;SDS011;10873;51.132;16.848;2023-09-18T09:26:33;4.00;;;3.50;;
21424;SDS011;10873;51.132;16.848;2023-09-18T09:31:44;5.50;;;3.10;;
21424;SDS011;10873;51.132;16.848;2023-09-18T09:34:11;4.35;;;3.67;;
21424;SDS011;10873;51.132;16.848;2023-09-18T09:36:41;4.00;;;3.60;;
21424;SDS011;10873;51.132;16.848;2023-09-18T09:39:19;3.40;;;3.10;;
21424;SDS011;10873;51.132;16.848;2023-09-18T09:41:47;3.95;;;3.28;;
21424;SDS011;10873;51.132;16.848;2023-09-18T09:44:14;4.63;;;3.40;;
21424;SDS011;10873;51.132;16.848;2023-09-18T09:46:45;5.30;;;3.50;;
21424;SDS011;10873;51.132;16.848;2023-09-18T09:49:11;3.67;;;3.35;;
21424;SDS011;10873;51.132;16.848;2023-09-18T09:51:37;3.83;;;3.22;;
21424;SDS011;10873;51.132;16.848;2023-09-18T09:54:03;5.55;;;4.97;;
21424;SDS011;10873;51.132;16.848;2023-09-18T09:56:44;17.30;;;13.50;;
21424;SDS011;10873;51.132;16.848;2023-09-18T09:59:11;29.90;;;18.83;;
21424;SDS011;10873;51.132;16.848;2023-09-18T10:01:39;23.23;;;15.32;;
21424;SDS011;10873;51.132;16.848;2023-09-18T10:04:13;22.75;;;14.20;;
21424;SDS011;10873;51.132;16.848;2023-09-18T10:06:43;20.95;;;13.15;;
21424;SDS011;10873;51.132;16.848;2023-09-18T10:09:10;17.40;;;13.00;;
21424;SDS011;10873;51.132;16.848;2023-09-18T10:11:40;20.52;;;12.88;;
21424;SDS011;10873;51.132;16.848;2023-09-18T10:14:12;17.35;;;12.15;;
21424;SDS011;10873;51.132;16.848;2023-09-18T10:16:42;17.25;;;11.30;;
21424;SDS011;10873;51.132;16.848;2023-09-18T10:19:21;18.67;;;11.45;;
21424;SDS011;10873;51.132;16.848;2023-09-18T10:22:00;15.68;;;9.75;;
21424;SDS011;10873;51.132;16.848;2023-09-18T10:24:33;19.17;;;9.63;;
21424;SDS011;10873;51.132;16.848;2023-09-18T10:27:02;16.38;;;9.98;;
21424;SDS011;10873;51.132;16.848;2023-09-18T10:29:32;15.95;;;9.52;;
21424;SDS011;10873;51.132;16.848;2023-09-18T10:32:00;13.23;;;9.07;;
21424;SDS011;10873;51.132;16.848;2023-09-18T10:34:29;14.80;;;8.93;;
21424;SDS011;10873;51.132;16.848;2023-09-18T10:36:57;16.48;;;9.43;;
21424;SDS011;10873;51.132;16.848;2023-09-18T10:39:26;17.77;;;10.00;;
21424;SDS011;10873;51.132;16.848;2023-09-18T10:41:54;15.70;;;9.40;;
21424;SDS011;10873;51.132;16.848;2023-09-18T10:44:27;16.08;;;9.82;;
21424;SDS011;10873;51.132;16.848;2023-09-18T10:47:05;15.70;;;9.13;;
21424;SDS011;10873;51.132;16.848;2023-09-18T10:49:34;13.95;;;9.13;;
21424;SDS011;10873;51.132;16.848;2023-09-18T10:59:24;14.82;;;9.10;;
21424;SDS011;10873;51.132;16.848;2023-09-18T11:17:37;13.98;;;7.75;;
21424;SDS011;10873;51.132;16.848;2023-09-18T11:20:16;11.35;;;7.72;;
21424;SDS011;10873;51.132;16.848;2023-09-18T11:23:19;12.73;;;7.93;;
21424;SDS011;10873;51.132;16.848;2023-09-18T11:26:11;12.00;;;7.25;;
21424;SDS011;10873;51.132;16.848;2023-09-18T11:29:22;12.13;;;7.93;;
21424;SDS011;10873;51.132;16.848;2023-09-18T11:31:57;10.35;;;7.65;;
21424;SDS011;10873;51.132;16.848;2023-09-18T11:34:51;10.48;;;7.20;;
21424;SDS011;10873;51.132;16.848;2023-09-18T11:38:02;9.82;;;7.10;;
21424;SDS011;10873;51.132;16.848;2023-09-18T11:43:49;11.75;;;6.93;;
21424;SDS011;10873;51.132;16.848;2023-09-18T11:47:13;11.77;;;6.82;;
21424;SDS011;10873;51.132;16.848;2023-09-18T11:53:13;8.90;;;6.50;;
21424;SDS011;10873;51.132;16.848;2023-09-18T11:55:47;9.55;;;7.03;;
21424;SDS011;10873;51.132;16.848;2023-09-18T11:58:23;9.30;;;6.60;;
21424;SDS011;10873;51.132;16.848;2023-09-18T12:00:50;9.85;;;6.88;;
21424;SDS011;10873;51.132;16.848;2023-09-18T12:03:20;9.60;;;6.57;;
21424;SDS011;10873;51.132;16.848;2023-09-18T12:05:55;9.85;;;7.10;;
21424;SDS011;10873;51.132;16.848;2023-09-18T12:08:32;9.10;;;6.85;;
21424;SDS011;10873;51.132;16.848;2023-09-18T12:10:59;8.63;;;6.45;;
21424;SDS011;10873;51.132;16.848;2023-09-18T12:13:37;9.02;;;6.93;;
21424;SDS011;10873;51.132;16.848;2023-09-18T12:16:08;8.55;;;5.75;;
21424;SDS011;10873;51.132;16.848;2023-09-18T12:18:47;9.70;;;6.07;;
21424;SDS011;10873;51.132;16.848;2023-09-18T12:21:50;7.93;;;6.72;;
21424;SDS011;10873;51.132;16.848;2023-09-18T12:25:10;8.07;;;6.72;;
21424;SDS011;10873;51.132;16.848;2023-09-18T12:27:40;9.38;;;6.63;;
21424;SDS011;10873;51.132;16.848;2023-09-18T12:30:12;8.27;;;6.65;;
21424;SDS011;10873;51.132;16.848;2023-09-18T12:32:46;8.25;;;6.57;;
21424;SDS011;10873;51.132;16.848;2023-09-18T12:35:19;7.95;;;6.60;;
21424;SDS011;10873;51.132;16.848;2023-09-18T12:38:12;8.60;;;6.15;;
21424;SDS011;10873;51.132;16.848;2023-09-18T12:40:59;10.18;;;7.10;;
21424;SDS011;10873;51.132;16.848;2023-09-18T12:46:54;8.00;;;6.28;;
21424;SDS011;10873;51.132;16.848;2023-09-18T12:49:29;8.02;;;6.47;;
21424;SDS011;10873;51.132;16.848;2023-09-18T12:52:49;7.90;;;6.38;;
21424;SDS011;10873;51.132;16.848;2023-09-18T12:55:39;7.03;;;5.82;;
21424;SDS011;10873;51.132;16.848;2023-09-18T12:58:37;7.63;;;5.82;;
21424;SDS011;10873;51.132;16.848;2023-09-18T13:01:28;8.43;;;6.25;;
21424;SDS011;10873;51.132;16.848;2023-09-18T13:04:26;7.63;;;5.65;;
21424;SDS011;10873;51.132;16.848;2023-09-18T13:07:23;6.97;;;5.90;;
21424;SDS011;10873;51.132;16.848;2023-09-18T13:10:14;7.97;;;5.80;;
21424;SDS011;10873;51.132;16.848;2023-09-18T13:17:14;6.95;;;6.20;;
21424;SDS011;10873;51.132;16.848;2023-09-18T13:19:58;6.93;;;5.93;;
21424;SDS011;10873;51.132;16.848;2023-09-18T13:22:33;6.85;;;5.55;;
21424;SDS011;10873;51.132;16.848;2023-09-18T13:25:28;7.05;;;5.50;;
21424;SDS011;10873;51.132;16.848;2023-09-18T13:28:21;7.65;;;5.97;;
21424;SDS011;10873;51.132;16.848;2023-09-18T13:37:38;8.35;;;5.72;;
21424;SDS011;10873;51.132;16.848;2023-09-18T13:40:11;6.07;;;5.38;;
21424;SDS011;10873;51.132;16.848;2023-09-18T13:42:41;7.20;;;5.68;;
21424;SDS011;10873;51.132;16.848;2023-09-18T13:45:19;6.45;;;5.65;;
21424;SDS011;10873;51.132;16.848;2023-09-18T13:51:21;6.85;;;5.07;;
21424;SDS011;10873;51.132;16.848;2023-09-18T13:54:10;6.97;;;5.53;;
21424;SDS011;10873;51.132;16.848;2023-09-18T13:57:17;6.47;;;5.47;;
21424;SDS011;10873;51.132;16.848;2023-09-18T14:00:16;7.00;;;4.93;;
21424;SDS011;10873;51.132;16.848;2023-09-18T14:02:50;5.40;;;4.90;;
21424;SDS011;10873;51.132;16.848;2023-09-18T14:08:11;5.78;;;5.18;;
21424;SDS011;10873;51.132;16.848;2023-09-18T14:10:42;5.90;;;5.30;;
21424;SDS011;10873;51.132;16.848;2023-09-18T14:13:11;5.88;;;5.18;;
21424;SDS011;10873;51.132;16.848;2023-09-18T14:15:41;6.40;;;5.07;;
21424;SDS011;10873;51.132;16.848;2023-09-18T14:18:10;6.53;;;5.00;;
21424;SDS011;10873;51.132;16.848;2023-09-18T14:20:45;5.50;;;4.75;;
21424;SDS011;10873;51.132;16.848;2023-09-18T14:23:33;5.50;;;5.00;;
21424;SDS011;10873;51.132;16.848;2023-09-18T14:26:05;6.40;;;5.50;;
21424;SDS011;10873;51.132;16.848;2023-09-18T14:28:41;5.78;;;4.75;;
21424;SDS011;10873;51.132;16.848;2023-09-18T14:31:14;5.85;;;5.25;;
21424;SDS011;10873;51.132;16.848;2023-09-18T14:33:45;5.97;;;4.68;;
21424;SDS011;10873;51.132;16.848;2023-09-18T14:36:22;6.00;;;5.40;;
21424;SDS011;10873;51.132;16.848;2023-09-18T14:39:34;5.25;;;4.75;;
21424;SDS011;10873;51.132;16.848;2023-09-18T14:41:53;5.80;;;5.00;;
21424;SDS011;10873;51.132;16.848;2023-09-18T14:44:34;5.60;;;5.10;;
21424;SDS011;10873;51.132;16.848;2023-09-18T14:47:00;5.95;;;5.10;;
21424;SDS011;10873;51.132;16.848;2023-09-18T14:49:32;6.03;;;4.75;;
21424;SDS011;10873;51.132;16.848;2023-09-18T14:51:59;5.72;;;4.88;;
21424;SDS011;10873;51.132;16.848;2023-09-18T14:58:32;7.88;;;4.90;;
21424;SDS011;10873;51.132;16.848;2023-09-18T15:01:02;5.78;;;4.35;;
21424;SDS011;10873;51.132;16.848;2023-09-18T15:03:48;5.30;;;4.80;;
21424;SDS011;10873;51.132;16.848;2023-09-18T15:06:24;6.30;;;4.60;;
21424;SDS011;10873;51.132;16.848;2023-09-18T15:09:08;5.72;;;4.82;;
21424;SDS011;10873;51.132;16.848;2023-09-18T15:11:45;5.93;;;4.57;;
21424;SDS011;10873;51.132;16.848;2023-09-18T15:14:16;5.60;;;5.00;;
21424;SDS011;10873;51.132;16.848;2023-09-18T15:16:47;4.95;;;4.45;;
21424;SDS011;10873;51.132;16.848;2023-09-18T15:19:18;6.97;;;5.30;;
21424;SDS011;10873;51.132;16.848;2023-09-18T15:21:49;5.93;;;4.90;;
21424;SDS011;10873;51.132;16.848;2023-09-18T15:24:19;6.90;;;5.10;;
21424;SDS011;10873;51.132;16.848;2023-09-18T15:26:54;6.03;;;5.03;;
21424;SDS011;10873;51.132;16.848;2023-09-18T15:29:22;5.35;;;4.60;;
21424;SDS011;10873;51.132;16.848;2023-09-18T15:31:58;9.38;;;5.50;;
21424;SDS011;10873;51.132;16.848;2023-09-18T15:34:59;9.57;;;6.03;;
21424;SDS011;10873;51.132;16.848;2023-09-18T15:37:34;7.75;;;5.45;;
21424;SDS011;10873;51.132;16.848;2023-09-18T15:40:10;9.40;;;6.32;;
21424;SDS011;10873;51.132;16.848;2023-09-18T15:43:00;7.78;;;5.70;;
21424;SDS011;10873;51.132;16.848;2023-09-18T15:45:33;7.70;;;5.60;;
21424;SDS011;10873;51.132;16.848;2023-09-18T15:48:36;8.65;;;5.47;;
21424;SDS011;10873;51.132;16.848;2023-09-18T15:51:10;6.10;;;5.50;;
21424;SDS011;10873;51.132;16.848;2023-09-18T15:53:52;8.57;;;6.18;;
21424;SDS011;10873;51.132;16.848;2023-09-18T15:56:30;8.55;;;6.30;;
21424;SDS011;10873;51.132;16.848;2023-09-18T15:59:32;7.40;;;5.82;;
21424;SDS011;10873;51.132;16.848;2023-09-18T16:05:54;8.40;;;5.70;;
21424;SDS011;10873;51.132;16.848;2023-09-18T16:08:23;10.00;;;6.25;;